Houck, AZ (86506)

12:32 PM MDT on May 04, 2015 (GMT -0600)
Window Rock | | Change Station
CLOSE
Current Station
Airport
Location: Window Rock,
Elevation: 6742 ft
Nearby Weather Stations

Elev 6742 ft 35.66 °N, 109.06 °W | Updated 39 minutes ago

Overcast
Overcast
58 °F
Feels Like 58 °F
N
16
Wind Variable Wind from SSE
Gusts 24 mph

Today
High -- | Low -- °F
--% Chance of Precip.
Yesterday
High -- | Low -- °F
Precip. -- in
6:22 AM 8:05 PM
Full, 100% visible
Pressure 29.84 in
Visibility 10.0 miles
Clouds Mostly Cloudy 4100 ft
Mostly Cloudy 5000 ft
Mostly Cloudy 11000 ft
Dew Point 42 °F
Humidity 56%
Rainfall 0.06 in
Snow Depth Not available.
UV 6 out of 12
Pollen 6.50 out of 12
Air Quality Not available.
Flu Activity Local Activity
METAR KRQE 041753Z AUTO 15014G21KT 10SM BKN041 BKN050 BKN110 14/06 A3009 RMK AO2 SLP105 60000 T01440056 10167 20061 55002 TSNO

More Conditions Fewer Conditions

Pressure 29.84 in
Visibility 10.0 miles
Clouds Mostly Cloudy 4100 ft
Mostly Cloudy 5000 ft
Mostly Cloudy 11000 ft
Dew Point 42 °F
Humidity 56%
Rainfall 0.06 in
Snow Depth Not available.
UV 6 out of 12
Pollen 6.50 out of 12
Air Quality Not available.
Flu Activity Local Activity
METAR KRQE 041753Z AUTO 15014G21KT 10SM BKN041 BKN050 BKN110 14/06 A3009 RMK AO2 SLP105 60000 T01440056 10167 20061 55002 TSNO

More Conditions Fewer Conditions

Nepal has a long way to go to dig out and rebuild from a devastating earthquake. We have teamed up with several charities and organizations to make contributing to the relief effort as easy as possible.
How you can help: Portlight Strategies | Red Cross

10-Day Weather Forecast

Almanac

Astronomy

May. 04, 2015 Rise Set
Actual Time
Civil Twilight
Nautical Twilight
Astronomical Twilight
Moon
Length of Visible Light
Length of Day
Tomorrow will be .
, % of the Moon is Illuminated

Today's Extremes

State Highs State Lows

Community

WunderPhotos

Upload Photos

1,818,665 photos uploaded!

WunderBlogs® & News

Nearby

Air Quality

  Air Quality AQ Index Pollutant
Not available.

Snow Depth

Station Depth Elevation

Earthquake Activity

City Distance Mag. Time & Date
Minimum magnitude displayed is 2.5.

Coastal Water Temperatures

Place Temperature

Stations

Nearby Weather Stations

Station Location Temp. Windchill Dew Point Humidity Wind Precip. Elev Updated Type